Terminal Aerodrome Forecast
Issued by NWS Cleveland, OH

Home | Current Version | Previous Version | Graphics & Text | Print | Product List | Glossary On
Versions: 1 2 3 4 5 6 7 8 9 10 11 12 13 14
105
FTUS41 KCLE 212343
TAFERI
TAF
KERI 212343Z 2200/2224 VRB03KT P6SM OVC080
     FM221600 34010KT P6SM BKN080 OVC120
     FM222000 35010KT P6SM FEW080 SCT150=

USA.gov is the U.S. government's official web portal to all federal, state and local government web resources and services.